sensor_id;sensor_type;location;lat;lon;timestamp;P1;durP1;ratioP1;P2;durP2;ratioP2
64712;SDS011;51140;45.340;5.980;2023-03-23T00:02:10;9.13;;;2.75;;
64712;SDS011;51140;45.340;5.980;2023-03-23T00:04:36;7.15;;;3.00;;
64712;SDS011;51140;45.340;5.980;2023-03-23T00:07:01;10.93;;;3.58;;
64712;SDS011;51140;45.340;5.980;2023-03-23T00:09:28;8.25;;;3.33;;
64712;SDS011;51140;45.340;5.980;2023-03-23T00:11:55;8.93;;;3.60;;
64712;SDS011;51140;45.340;5.980;2023-03-23T00:14:22;9.07;;;3.70;;
64712;SDS011;51140;45.340;5.980;2023-03-23T00:16:48;8.50;;;3.67;;
64712;SDS011;51140;45.340;5.980;2023-03-23T00:19:15;10.40;;;3.67;;
64712;SDS011;51140;45.340;5.980;2023-03-23T00:21:42;9.38;;;3.60;;
64712;SDS011;51140;45.340;5.980;2023-03-23T00:24:12;10.55;;;3.85;;
64712;SDS011;51140;45.340;5.980;2023-03-23T00:26:42;8.13;;;3.70;;
64712;SDS011;51140;45.340;5.980;2023-03-23T00:29:19;9.35;;;3.72;;
64712;SDS011;51140;45.340;5.980;2023-03-23T00:31:49;8.85;;;3.55;;
64712;SDS011;51140;45.340;5.980;2023-03-23T00:34:15;11.68;;;3.70;;
64712;SDS011;51140;45.340;5.980;2023-03-23T00:36:50;9.15;;;3.38;;
64712;SDS011;51140;45.340;5.980;2023-03-23T00:39:18;8.63;;;3.60;;
64712;SDS011;51140;45.340;5.980;2023-03-23T00:41:44;7.80;;;3.40;;
64712;SDS011;51140;45.340;5.980;2023-03-23T00:44:11;8.27;;;3.67;;
64712;SDS011;51140;45.340;5.980;2023-03-23T00:46:45;7.95;;;3.25;;
64712;SDS011;51140;45.340;5.980;2023-03-23T00:49:13;7.63;;;3.47;;
64712;SDS011;51140;45.340;5.980;2023-03-23T00:51:41;10.55;;;3.58;;
64712;SDS011;51140;45.340;5.980;2023-03-23T00:54:07;8.30;;;3.00;;
64712;SDS011;51140;45.340;5.980;2023-03-23T00:56:33;10.38;;;3.38;;
64712;SDS011;51140;45.340;5.980;2023-03-23T00:58:59;8.82;;;3.30;;
64712;SDS011;51140;45.340;5.980;2023-03-23T01:01:24;9.90;;;3.42;;
64712;SDS011;51140;45.340;5.980;2023-03-23T01:03:50;7.90;;;3.55;;
64712;SDS011;51140;45.340;5.980;2023-03-23T01:06:15;8.13;;;3.20;;
64712;SDS011;51140;45.340;5.980;2023-03-23T01:08:41;7.75;;;3.45;;
64712;SDS011;51140;45.340;5.980;2023-03-23T01:11:11;8.23;;;3.47;;
64712;SDS011;51140;45.340;5.980;2023-03-23T01:13:38;6.30;;;3.10;;
64712;SDS011;51140;45.340;5.980;2023-03-23T01:16:05;9.15;;;2.97;;
64712;SDS011;51140;45.340;5.980;2023-03-23T01:18:31;7.40;;;2.75;;
64712;SDS011;51140;45.340;5.980;2023-03-23T01:20:56;7.72;;;3.08;;
64712;SDS011;51140;45.340;5.980;2023-03-23T01:23:21;7.43;;;3.13;;
64712;SDS011;51140;45.340;5.980;2023-03-23T01:25:47;6.90;;;3.00;;
64712;SDS011;51140;45.340;5.980;2023-03-23T01:28:13;8.10;;;3.20;;
64712;SDS011;51140;45.340;5.980;2023-03-23T01:30:38;11.07;;;3.33;;
64712;SDS011;51140;45.340;5.980;2023-03-23T01:33:04;14.82;;;3.65;;
64712;SDS011;51140;45.340;5.980;2023-03-23T01:35:30;6.32;;;3.03;;
64712;SDS011;51140;45.340;5.980;2023-03-23T01:37:55;7.30;;;3.10;;
64712;SDS011;51140;45.340;5.980;2023-03-23T01:40:20;8.20;;;3.35;;
64712;SDS011;51140;45.340;5.980;2023-03-23T01:42:46;6.90;;;3.40;;
64712;SDS011;51140;45.340;5.980;2023-03-23T01:47:51;9.60;;;3.50;;
64712;SDS011;51140;45.340;5.980;2023-03-23T01:50:18;12.85;;;3.85;;
64712;SDS011;51140;45.340;5.980;2023-03-23T01:52:47;7.25;;;3.47;;
64712;SDS011;51140;45.340;5.980;2023-03-23T01:55:14;10.13;;;3.20;;
64712;SDS011;51140;45.340;5.980;2023-03-23T01:57:40;7.80;;;3.10;;
64712;SDS011;51140;45.340;5.980;2023-03-23T02:00:07;6.38;;;2.80;;
64712;SDS011;51140;45.340;5.980;2023-03-23T02:02:40;11.25;;;3.40;;
64712;SDS011;51140;45.340;5.980;2023-03-23T02:05:13;7.88;;;3.45;;
64712;SDS011;51140;45.340;5.980;2023-03-23T02:07:44;8.65;;;3.47;;
64712;SDS011;51140;45.340;5.980;2023-03-23T02:10:11;8.70;;;3.65;;
64712;SDS011;51140;45.340;5.980;2023-03-23T02:12:36;7.28;;;3.58;;
64712;SDS011;51140;45.340;5.980;2023-03-23T02:15:02;7.15;;;3.55;;
64712;SDS011;51140;45.340;5.980;2023-03-23T02:39:19;8.57;;;3.47;;
64712;SDS011;51140;45.340;5.980;2023-03-23T02:41:51;6.20;;;2.92;;
64712;SDS011;51140;45.340;5.980;2023-03-23T02:44:22;8.80;;;3.00;;
64712;SDS011;51140;45.340;5.980;2023-03-23T02:46:49;8.45;;;2.97;;
64712;SDS011;51140;45.340;5.980;2023-03-23T02:49:16;6.80;;;2.90;;
64712;SDS011;51140;45.340;5.980;2023-03-23T02:51:45;7.97;;;3.67;;
64712;SDS011;51140;45.340;5.980;2023-03-23T02:54:13;7.57;;;3.20;;
64712;SDS011;51140;45.340;5.980;2023-03-23T02:56:41;7.88;;;3.72;;
64712;SDS011;51140;45.340;5.980;2023-03-23T02:59:08;11.15;;;3.70;;
64712;SDS011;51140;45.340;5.980;2023-03-23T03:04:07;8.35;;;3.72;;
64712;SDS011;51140;45.340;5.980;2023-03-23T03:07:01;7.28;;;3.10;;
64712;SDS011;51140;45.340;5.980;2023-03-23T03:09:49;7.30;;;3.78;;
64712;SDS011;51140;45.340;5.980;2023-03-23T03:12:32;9.30;;;3.90;;
64712;SDS011;51140;45.340;5.980;2023-03-23T03:17:32;10.75;;;3.60;;
64712;SDS011;51140;45.340;5.980;2023-03-23T03:20:05;8.90;;;3.28;;
64712;SDS011;51140;45.340;5.980;2023-03-23T03:22:36;7.45;;;3.20;;
64712;SDS011;51140;45.340;5.980;2023-03-23T03:25:07;9.27;;;3.22;;
64712;SDS011;51140;45.340;5.980;2023-03-23T03:27:34;8.23;;;2.95;;
64712;SDS011;51140;45.340;5.980;2023-03-23T03:30:00;7.65;;;3.00;;
64712;SDS011;51140;45.340;5.980;2023-03-23T03:32:31;7.10;;;2.95;;
64712;SDS011;51140;45.340;5.980;2023-03-23T03:35:04;6.47;;;2.58;;
64712;SDS011;51140;45.340;5.980;2023-03-23T03:37:37;8.85;;;2.80;;
64712;SDS011;51140;45.340;5.980;2023-03-23T03:40:08;7.18;;;3.35;;
64712;SDS011;51140;45.340;5.980;2023-03-23T03:42:40;7.97;;;3.70;;
64712;SDS011;51140;45.340;5.980;2023-03-23T03:45:08;8.00;;;3.75;;
64712;SDS011;51140;45.340;5.980;2023-03-23T03:47:35;6.70;;;3.08;;
64712;SDS011;51140;45.340;5.980;2023-03-23T03:50:00;7.15;;;3.45;;
64712;SDS011;51140;45.340;5.980;2023-03-23T03:52:26;8.02;;;3.33;;
64712;SDS011;51140;45.340;5.980;2023-03-23T03:54:52;9.65;;;3.70;;
64712;SDS011;51140;45.340;5.980;2023-03-23T03:57:18;9.82;;;3.22;;
64712;SDS011;51140;45.340;5.980;2023-03-23T03:59:44;7.90;;;2.85;;
64712;SDS011;51140;45.340;5.980;2023-03-23T04:02:10;9.25;;;2.80;;
64712;SDS011;51140;45.340;5.980;2023-03-23T04:04:39;6.45;;;2.90;;
64712;SDS011;51140;45.340;5.980;2023-03-23T04:07:06;10.75;;;3.22;;
64712;SDS011;51140;45.340;5.980;2023-03-23T04:09:31;11.00;;;3.28;;
64712;SDS011;51140;45.340;5.980;2023-03-23T04:11:57;8.32;;;2.97;;
64712;SDS011;51140;45.340;5.980;2023-03-23T04:14:22;8.90;;;3.47;;
64712;SDS011;51140;45.340;5.980;2023-03-23T04:16:48;7.97;;;3.28;;
64712;SDS011;51140;45.340;5.980;2023-03-23T04:19:21;8.85;;;3.20;;
64712;SDS011;51140;45.340;5.980;2023-03-23T04:21:47;6.15;;;3.00;;
64712;SDS011;51140;45.340;5.980;2023-03-23T04:24:14;9.75;;;3.38;;
64712;SDS011;51140;45.340;5.980;2023-03-23T04:26:40;5.43;;;2.60;;
64712;SDS011;51140;45.340;5.980;2023-03-23T04:29:06;6.18;;;2.60;;
64712;SDS011;51140;45.340;5.980;2023-03-23T04:31:33;7.57;;;2.80;;
64712;SDS011;51140;45.340;5.980;2023-03-23T04:33:59;8.85;;;2.65;;
64712;SDS011;51140;45.340;5.980;2023-03-23T04:36:26;9.07;;;2.78;;
64712;SDS011;51140;45.340;5.980;2023-03-23T04:38:53;6.88;;;2.42;;
64712;SDS011;51140;45.340;5.980;2023-03-23T04:41:20;4.90;;;2.15;;
64712;SDS011;51140;45.340;5.980;2023-03-23T04:43:47;5.00;;;2.30;;
64712;SDS011;51140;45.340;5.980;2023-03-23T04:46:17;6.80;;;2.30;;
64712;SDS011;51140;45.340;5.980;2023-03-23T04:48:44;7.47;;;2.42;;
64712;SDS011;51140;45.340;5.980;2023-03-23T04:51:10;6.35;;;2.60;;
64712;SDS011;51140;45.340;5.980;2023-03-23T04:53:37;6.60;;;2.10;;
64712;SDS011;51140;45.340;5.980;2023-03-23T04:56:02;7.93;;;2.55;;
64712;SDS011;51140;45.340;5.980;2023-03-23T04:58:28;4.75;;;2.28;;
64712;SDS011;51140;45.340;5.980;2023-03-23T05:00:54;4.75;;;2.13;;
64712;SDS011;51140;45.340;5.980;2023-03-23T05:03:20;5.82;;;2.58;;
64712;SDS011;51140;45.340;5.980;2023-03-23T05:05:46;6.75;;;2.30;;
64712;SDS011;51140;45.340;5.980;2023-03-23T05:08:16;5.75;;;2.30;;
64712;SDS011;51140;45.340;5.980;2023-03-23T05:10:56;6.68;;;2.25;;
64712;SDS011;51140;45.340;5.980;2023-03-23T05:13:22;6.95;;;2.20;;
64712;SDS011;51140;45.340;5.980;2023-03-23T05:15:48;6.80;;;2.42;;
64712;SDS011;51140;45.340;5.980;2023-03-23T05:18:14;5.40;;;2.15;;
64712;SDS011;51140;45.340;5.980;2023-03-23T05:20:39;5.95;;;2.70;;
64712;SDS011;51140;45.340;5.980;2023-03-23T05:23:06;6.45;;;2.42;;
64712;SDS011;51140;45.340;5.980;2023-03-23T05:25:32;12.55;;;2.80;;
64712;SDS011;51140;45.340;5.980;2023-03-23T05:28:01;6.63;;;2.50;;
64712;SDS011;51140;45.340;5.980;2023-03-23T05:30:27;6.68;;;2.55;;
64712;SDS011;51140;45.340;5.980;2023-03-23T05:32:52;7.43;;;2.90;;
64712;SDS011;51140;45.340;5.980;2023-03-23T05:35:18;7.90;;;3.42;;
64712;SDS011;51140;45.340;5.980;2023-03-23T05:37:45;9.95;;;2.88;;
64712;SDS011;51140;45.340;5.980;2023-03-23T05:40:11;7.03;;;2.90;;
64712;SDS011;51140;45.340;5.980;2023-03-23T05:42:37;9.48;;;3.13;;
64712;SDS011;51140;45.340;5.980;2023-03-23T05:45:05;7.15;;;2.72;;
64712;SDS011;51140;45.340;5.980;2023-03-23T05:47:31;8.13;;;2.90;;
64712;SDS011;51140;45.340;5.980;2023-03-23T05:49:57;5.90;;;2.47;;
64712;SDS011;51140;45.340;5.980;2023-03-23T05:52:22;6.50;;;2.45;;
64712;SDS011;51140;45.340;5.980;2023-03-23T05:54:49;5.82;;;2.40;;
64712;SDS011;51140;45.340;5.980;2023-03-23T05:57:15;11.60;;;2.92;;
64712;SDS011;51140;45.340;5.980;2023-03-23T05:59:41;5.88;;;2.80;;
64712;SDS011;51140;45.340;5.980;2023-03-23T06:02:07;6.55;;;2.40;;
64712;SDS011;51140;45.340;5.980;2023-03-23T06:04:32;5.95;;;2.53;;
64712;SDS011;51140;45.340;5.980;2023-03-23T06:06:58;5.68;;;2.60;;
64712;SDS011;51140;45.340;5.980;2023-03-23T06:09:27;7.07;;;2.70;;
64712;SDS011;51140;45.340;5.980;2023-03-23T06:11:53;8.15;;;2.85;;
64712;SDS011;51140;45.340;5.980;2023-03-23T06:14:18;5.95;;;2.53;;
64712;SDS011;51140;45.340;5.980;2023-03-23T06:16:44;6.35;;;2.45;;
64712;SDS011;51140;45.340;5.980;2023-03-23T06:19:09;6.85;;;3.10;;
64712;SDS011;51140;45.340;5.980;2023-03-23T06:21:36;5.38;;;2.35;;
64712;SDS011;51140;45.340;5.980;2023-03-23T06:24:02;9.77;;;3.30;;
64712;SDS011;51140;45.340;5.980;2023-03-23T06:26:30;9.95;;;3.85;;
64712;SDS011;51140;45.340;5.980;2023-03-23T06:29:01;7.43;;;3.53;;
64712;SDS011;51140;45.340;5.980;2023-03-23T06:31:27;8.90;;;3.60;;
64712;SDS011;51140;45.340;5.980;2023-03-23T06:33:53;11.43;;;3.75;;
64712;SDS011;51140;45.340;5.980;2023-03-23T06:36:19;7.85;;;3.03;;
64712;SDS011;51140;45.340;5.980;2023-03-23T06:38:44;6.63;;;3.00;;
64712;SDS011;51140;45.340;5.980;2023-03-23T06:41:10;8.52;;;2.88;;
64712;SDS011;51140;45.340;5.980;2023-03-23T06:43:36;5.78;;;2.80;;
64712;SDS011;51140;45.340;5.980;2023-03-23T06:46:04;8.13;;;2.97;;
64712;SDS011;51140;45.340;5.980;2023-03-23T06:48:30;5.40;;;2.67;;
64712;SDS011;51140;45.340;5.980;2023-03-23T06:50:55;5.80;;;2.70;;
64712;SDS011;51140;45.340;5.980;2023-03-23T06:53:21;6.90;;;2.78;;
64712;SDS011;51140;45.340;5.980;2023-03-23T06:55:46;9.77;;;3.25;;
64712;SDS011;51140;45.340;5.980;2023-03-23T06:58:12;8.95;;;3.70;;
64712;SDS011;51140;45.340;5.980;2023-03-23T07:00:38;15.35;;;3.75;;
64712;SDS011;51140;45.340;5.980;2023-03-23T07:03:05;8.85;;;4.30;;
64712;SDS011;51140;45.340;5.980;2023-03-23T07:05:32;8.07;;;3.80;;
64712;SDS011;51140;45.340;5.980;2023-03-23T07:07:58;6.72;;;3.65;;
64712;SDS011;51140;45.340;5.980;2023-03-23T07:10:23;7.75;;;3.30;;
64712;SDS011;51140;45.340;5.980;2023-03-23T07:12:49;7.82;;;3.72;;
64712;SDS011;51140;45.340;5.980;2023-03-23T07:15:15;7.47;;;3.53;;
64712;SDS011;51140;45.340;5.980;2023-03-23T07:17:41;9.57;;;4.13;;
64712;SDS011;51140;45.340;5.980;2023-03-23T07:20:07;9.25;;;4.13;;
64712;SDS011;51140;45.340;5.980;2023-03-23T07:22:32;11.20;;;4.07;;
64712;SDS011;51140;45.340;5.980;2023-03-23T07:24:58;9.82;;;4.10;;
64712;SDS011;51140;45.340;5.980;2023-03-23T07:27:24;11.65;;;4.53;;
64712;SDS011;51140;45.340;5.980;2023-03-23T07:29:50;10.18;;;4.70;;
64712;SDS011;51140;45.340;5.980;2023-03-23T07:32:15;11.25;;;4.00;;
64712;SDS011;51140;45.340;5.980;2023-03-23T07:34:41;11.90;;;4.30;;
64712;SDS011;51140;45.340;5.980;2023-03-23T07:37:07;7.15;;;3.90;;
64712;SDS011;51140;45.340;5.980;2023-03-23T07:39:33;10.15;;;4.45;;
64712;SDS011;51140;45.340;5.980;2023-03-23T07:41:59;12.02;;;4.30;;
64712;SDS011;51140;45.340;5.980;2023-03-23T07:44:24;8.32;;;3.78;;
64712;SDS011;51140;45.340;5.980;2023-03-23T07:46:50;9.35;;;4.43;;
64712;SDS011;51140;45.340;5.980;2023-03-23T07:49:16;12.25;;;4.70;;
64712;SDS011;51140;45.340;5.980;2023-03-23T07:51:42;11.73;;;4.25;;
64712;SDS011;51140;45.340;5.980;2023-03-23T07:54:08;10.27;;;4.63;;
64712;SDS011;51140;45.340;5.980;2023-03-23T07:56:34;9.63;;;4.57;;
64712;SDS011;51140;45.340;5.980;2023-03-23T07:59:01;8.95;;;4.40;;
64712;SDS011;51140;45.340;5.980;2023-03-23T08:01:27;9.27;;;3.90;;
64712;SDS011;51140;45.340;5.980;2023-03-23T08:03:53;11.48;;;4.22;;
64712;SDS011;51140;45.340;5.980;2023-03-23T08:06:21;15.52;;;4.63;;
64712;SDS011;51140;45.340;5.980;2023-03-23T08:08:47;10.25;;;4.68;;
64712;SDS011;51140;45.340;5.980;2023-03-23T08:11:12;10.18;;;4.15;;
64712;SDS011;51140;45.340;5.980;2023-03-23T08:13:40;16.70;;;4.57;;
64712;SDS011;51140;45.340;5.980;2023-03-23T08:16:06;9.32;;;3.85;;
64712;SDS011;51140;45.340;5.980;2023-03-23T08:18:34;10.23;;;4.43;;
64712;SDS011;51140;45.340;5.980;2023-03-23T08:21:00;7.55;;;4.10;;
64712;SDS011;51140;45.340;5.980;2023-03-23T08:23:26;11.13;;;4.63;;
64712;SDS011;51140;45.340;5.980;2023-03-23T08:25:51;7.75;;;4.05;;
64712;SDS011;51140;45.340;5.980;2023-03-23T08:28:17;8.75;;;4.20;;
64712;SDS011;51140;45.340;5.980;2023-03-23T08:30:42;17.50;;;9.23;;
64712;SDS011;51140;45.340;5.980;2023-03-23T08:33:08;16.98;;;8.98;;
64712;SDS011;51140;45.340;5.980;2023-03-23T08:35:35;21.15;;;12.15;;
64712;SDS011;51140;45.340;5.980;2023-03-23T08:38:01;21.33;;;10.80;;
64712;SDS011;51140;45.340;5.980;2023-03-23T08:40:26;18.50;;;8.48;;
64712;SDS011;51140;45.340;5.980;2023-03-23T08:42:52;17.60;;;7.97;;
64712;SDS011;51140;45.340;5.980;2023-03-23T08:45:19;17.95;;;8.50;;
64712;SDS011;51140;45.340;5.980;2023-03-23T08:47:47;19.52;;;10.00;;
64712;SDS011;51140;45.340;5.980;2023-03-23T08:50:16;21.02;;;9.85;;
64712;SDS011;51140;45.340;5.980;2023-03-23T08:52:44;20.13;;;10.02;;
64712;SDS011;51140;45.340;5.980;2023-03-23T08:55:10;21.00;;;9.82;;
64712;SDS011;51140;45.340;5.980;2023-03-23T08:57:36;22.20;;;9.85;;
64712;SDS011;51140;45.340;5.980;2023-03-23T09:00:03;18.92;;;9.55;;
64712;SDS011;51140;45.340;5.980;2023-03-23T09:02:51;19.85;;;9.57;;
64712;SDS011;51140;45.340;5.980;2023-03-23T09:05:19;15.07;;;8.50;;
64712;SDS011;51140;45.340;5.980;2023-03-23T09:07:47;17.58;;;8.63;;
64712;SDS011;51140;45.340;5.980;2023-03-23T09:10:15;21.63;;;8.27;;
64712;SDS011;51140;45.340;5.980;2023-03-23T09:12:42;18.08;;;8.80;;
64712;SDS011;51140;45.340;5.980;2023-03-23T09:15:10;17.77;;;8.57;;
64712;SDS011;51140;45.340;5.980;2023-03-23T09:17:46;14.40;;;7.30;;
64712;SDS011;51140;45.340;5.980;2023-03-23T09:20:14;14.90;;;6.30;;
64712;SDS011;51140;45.340;5.980;2023-03-23T09:22:45;15.88;;;7.38;;
64712;SDS011;51140;45.340;5.980;2023-03-23T09:25:16;10.07;;;6.22;;
64712;SDS011;51140;45.340;5.980;2023-03-23T09:27:46;13.90;;;6.32;;
64712;SDS011;51140;45.340;5.980;2023-03-23T09:30:17;13.55;;;6.00;;
64712;SDS011;51140;45.340;5.980;2023-03-23T09:32:44;14.95;;;5.30;;
64712;SDS011;51140;45.340;5.980;2023-03-23T09:35:10;11.85;;;5.30;;
64712;SDS011;51140;45.340;5.980;2023-03-23T09:37:41;36.65;;;6.80;;
64712;SDS011;51140;45.340;5.980;2023-03-23T09:40:11;10.77;;;5.22;;
64712;SDS011;51140;45.340;5.980;2023-03-23T09:48:29;13.30;;;6.80;;
64712;SDS011;51140;45.340;5.980;2023-03-23T09:51:02;13.48;;;6.53;;
64712;SDS011;51140;45.340;5.980;2023-03-23T09:53:38;13.48;;;7.00;;
64712;SDS011;51140;45.340;5.980;2023-03-23T09:56:11;14.25;;;9.88;;
64712;SDS011;51140;45.340;5.980;2023-03-23T09:58:51;17.17;;;12.40;;
64712;SDS011;51140;45.340;5.980;2023-03-23T10:03:46;27.23;;;12.68;;
64712;SDS011;51140;45.340;5.980;2023-03-23T10:06:13;13.20;;;10.45;;
64712;SDS011;51140;45.340;5.980;2023-03-23T10:09:01;40.50;;;11.15;;
64712;SDS011;51140;45.340;5.980;2023-03-23T10:17:25;10.45;;;7.60;;
64712;SDS011;51140;45.340;5.980;2023-03-23T10:25:50;10.50;;;7.22;;
64712;SDS011;51140;45.340;5.980;2023-03-23T10:28:21;10.07;;;6.57;;
64712;SDS011;51140;45.340;5.980;2023-03-23T10:31:00;12.65;;;6.80;;
64712;SDS011;51140;45.340;5.980;2023-03-23T10:36:12;16.95;;;6.68;;
64712;SDS011;51140;45.340;5.980;2023-03-23T10:38:49;11.50;;;5.13;;
64712;SDS011;51140;45.340;5.980;2023-03-23T10:41:17;9.07;;;4.80;;
64712;SDS011;51140;45.340;5.980;2023-03-23T10:43:44;11.63;;;5.60;;
64712;SDS011;51140;45.340;5.980;2023-03-23T10:49:05;11.70;;;4.25;;
64712;SDS011;51140;45.340;5.980;2023-03-23T10:51:37;8.23;;;3.67;;
64712;SDS011;51140;45.340;5.980;2023-03-23T10:54:06;8.35;;;3.25;;
64712;SDS011;51140;45.340;5.980;2023-03-23T10:59:14;8.13;;;3.72;;
64712;SDS011;51140;45.340;5.980;2023-03-23T11:01:45;11.15;;;3.10;;
64712;SDS011;51140;45.340;5.980;2023-03-23T11:04:15;9.48;;;3.10;;
64712;SDS011;51140;45.340;5.980;2023-03-23T11:06:46;7.30;;;3.47;;
64712;SDS011;51140;45.340;5.980;2023-03-23T11:09:18;8.85;;;3.15;;
64712;SDS011;51140;45.340;5.980;2023-03-23T11:11:50;9.32;;;2.78;;
64712;SDS011;51140;45.340;5.980;2023-03-23T11:16:57;8.07;;;3.10;;
64712;SDS011;51140;45.340;5.980;2023-03-23T11:19:32;7.40;;;2.83;;
64712;SDS011;51140;45.340;5.980;2023-03-23T11:24:31;10.60;;;3.20;;
64712;SDS011;51140;45.340;5.980;2023-03-23T11:26:59;8.20;;;3.28;;
64712;SDS011;51140;45.340;5.980;2023-03-23T11:29:26;11.95;;;3.03;;
64712;SDS011;51140;45.340;5.980;2023-03-23T11:32:00;8.77;;;3.40;;
64712;SDS011;51140;45.340;5.980;2023-03-23T11:34:43;9.05;;;3.03;;
64712;SDS011;51140;45.340;5.980;2023-03-23T11:37:12;8.23;;;3.30;;
64712;SDS011;51140;45.340;5.980;2023-03-23T11:40:00;8.13;;;2.78;;
64712;SDS011;51140;45.340;5.980;2023-03-23T11:45:07;6.90;;;3.08;;
64712;SDS011;51140;45.340;5.980;2023-03-23T11:50:59;8.23;;;3.20;;
64712;SDS011;51140;45.340;5.980;2023-03-23T11:56:25;9.88;;;3.38;;
64712;SDS011;51140;45.340;5.980;2023-03-23T11:58:55;9.80;;;3.20;;
64712;SDS011;51140;45.340;5.980;2023-03-23T12:09:38;9.20;;;4.28;;
64712;SDS011;51140;45.340;5.980;2023-03-23T12:21:21;10.40;;;4.15;;
64712;SDS011;51140;45.340;5.980;2023-03-23T12:24:38;9.15;;;4.85;;
64712;SDS011;51140;45.340;5.980;2023-03-23T12:30:04;10.25;;;5.47;;
64712;SDS011;51140;45.340;5.980;2023-03-23T12:41:01;10.52;;;5.90;;
64712;SDS011;51140;45.340;5.980;2023-03-23T12:57:12;11.63;;;6.38;;
64712;SDS011;51140;45.340;5.980;2023-03-23T13:07:45;14.57;;;6.35;;
64712;SDS011;51140;45.340;5.980;2023-03-23T13:10:24;13.57;;;6.22;;
64712;SDS011;51140;45.340;5.980;2023-03-23T13:12:54;14.35;;;6.13;;
64712;SDS011;51140;45.340;5.980;2023-03-23T13:18:30;13.35;;;5.60;;
64712;SDS011;51140;45.340;5.980;2023-03-23T13:23:36;11.18;;;5.75;;
64712;SDS011;51140;45.340;5.980;2023-03-23T13:28:47;13.13;;;4.93;;
64712;SDS011;51140;45.340;5.980;2023-03-23T13:31:14;10.07;;;5.22;;
64712;SDS011;51140;45.340;5.980;2023-03-23T13:33:52;12.93;;;5.90;;
64712;SDS011;51140;45.340;5.980;2023-03-23T13:36:29;11.02;;;5.70;;
64712;SDS011;51140;45.340;5.980;2023-03-23T13:39:17;14.80;;;5.70;;
64712;SDS011;51140;45.340;5.980;2023-03-23T13:44:39;12.35;;;5.47;;
64712;SDS011;51140;45.340;5.980;2023-03-23T13:47:16;11.77;;;5.00;;
64712;SDS011;51140;45.340;5.980;2023-03-23T13:58:26;11.18;;;5.65;;
64712;SDS011;51140;45.340;5.980;2023-03-23T14:10:35;10.50;;;5.57;;
64712;SDS011;51140;45.340;5.980;2023-03-23T14:18:39;13.50;;;5.68;;
64712;SDS011;51140;45.340;5.980;2023-03-23T14:21:12;11.95;;;5.28;;
64712;SDS011;51140;45.340;5.980;2023-03-23T14:23:40;9.63;;;5.32;;
64712;SDS011;51140;45.340;5.980;2023-03-23T14:26:10;13.13;;;5.43;;
64712;SDS011;51140;45.340;5.980;2023-03-23T14:28:44;10.80;;;5.22;;
64712;SDS011;51140;45.340;5.980;2023-03-23T14:33:51;12.20;;;5.22;;
64712;SDS011;51140;45.340;5.980;2023-03-23T14:39:03;12.18;;;4.90;;
64712;SDS011;51140;45.340;5.980;2023-03-23T14:41:33;14.68;;;4.93;;
64712;SDS011;51140;45.340;5.980;2023-03-23T14:44:00;10.68;;;5.00;;
64712;SDS011;51140;45.340;5.980;2023-03-23T14:46:29;11.30;;;5.35;;
64712;SDS011;51140;45.340;5.980;2023-03-23T14:48:55;10.30;;;5.55;;
64712;SDS011;51140;45.340;5.980;2023-03-23T14:51:24;13.35;;;5.40;;
64712;SDS011;51140;45.340;5.980;2023-03-23T14:53:49;9.75;;;4.88;;
64712;SDS011;51140;45.340;5.980;2023-03-23T14:56:18;10.68;;;5.28;;
64712;SDS011;51140;45.340;5.980;2023-03-23T14:58:48;10.43;;;5.30;;
64712;SDS011;51140;45.340;5.980;2023-03-23T15:01:19;13.30;;;5.60;;
64712;SDS011;51140;45.340;5.980;2023-03-23T15:04:34;10.32;;;5.47;;
64712;SDS011;51140;45.340;5.980;2023-03-23T15:06:41;12.95;;;5.60;;
64712;SDS011;51140;45.340;5.980;2023-03-23T15:09:18;12.93;;;5.90;;
64712;SDS011;51140;45.340;5.980;2023-03-23T15:11:52;12.30;;;5.80;;
64712;SDS011;51140;45.340;5.980;2023-03-23T15:14:22;12.00;;;5.50;;
64712;SDS011;51140;45.340;5.980;2023-03-23T15:16:54;11.18;;;5.40;;
64712;SDS011;51140;45.340;5.980;2023-03-23T15:19:26;18.23;;;5.60;;
64712;SDS011;51140;45.340;5.980;2023-03-23T15:24:38;11.82;;;5.22;;
64712;SDS011;51140;45.340;5.980;2023-03-23T15:27:11;9.07;;;5.72;;
64712;SDS011;51140;45.340;5.980;2023-03-23T15:29:47;11.77;;;5.63;;
64712;SDS011;51140;45.340;5.980;2023-03-23T15:32:25;10.38;;;5.13;;
64712;SDS011;51140;45.340;5.980;2023-03-23T15:35:04;11.00;;;5.32;;
64712;SDS011;51140;45.340;5.980;2023-03-23T15:37:40;11.85;;;6.30;;
64712;SDS011;51140;45.340;5.980;2023-03-23T15:40:27;9.05;;;5.10;;
64712;SDS011;51140;45.340;5.980;2023-03-23T15:51:26;12.68;;;5.38;;
64712;SDS011;51140;45.340;5.980;2023-03-23T15:53:54;16.27;;;5.35;;
64712;SDS011;51140;45.340;5.980;2023-03-23T15:56:21;12.88;;;5.80;;
64712;SDS011;51140;45.340;5.980;2023-03-23T15:58:47;11.55;;;4.82;;
64712;SDS011;51140;45.340;5.980;2023-03-23T16:01:23;11.60;;;5.57;;
64712;SDS011;51140;45.340;5.980;2023-03-23T16:06:18;11.60;;;4.38;;
64712;SDS011;51140;45.340;5.980;2023-03-23T16:08:46;9.63;;;4.55;;
64712;SDS011;51140;45.340;5.980;2023-03-23T16:11:12;11.88;;;4.88;;
64712;SDS011;51140;45.340;5.980;2023-03-23T16:13:39;19.30;;;4.88;;
64712;SDS011;51140;45.340;5.980;2023-03-23T16:16:05;11.80;;;4.80;;
64712;SDS011;51140;45.340;5.980;2023-03-23T16:18:36;14.80;;;5.65;;
64712;SDS011;51140;45.340;5.980;2023-03-23T16:21:01;13.98;;;5.20;;
64712;SDS011;51140;45.340;5.980;2023-03-23T16:23:27;10.93;;;4.63;;
64712;SDS011;51140;45.340;5.980;2023-03-23T16:25:53;11.70;;;5.10;;
64712;SDS011;51140;45.340;5.980;2023-03-23T16:28:18;14.63;;;5.72;;
64712;SDS011;51140;45.340;5.980;2023-03-23T16:30:45;13.93;;;5.30;;
64712;SDS011;51140;45.340;5.980;2023-03-23T16:33:11;13.85;;;6.68;;
64712;SDS011;51140;45.340;5.980;2023-03-23T16:35:37;14.68;;;6.18;;
64712;SDS011;51140;45.340;5.980;2023-03-23T16:38:03;17.42;;;6.60;;
64712;SDS011;51140;45.340;5.980;2023-03-23T16:40:29;14.85;;;4.95;;
64712;SDS011;51140;45.340;5.980;2023-03-23T16:42:54;14.90;;;5.78;;
64712;SDS011;51140;45.340;5.980;2023-03-23T16:45:20;9.15;;;4.70;;
64712;SDS011;51140;45.340;5.980;2023-03-23T16:47:47;10.68;;;6.03;;
64712;SDS011;51140;45.340;5.980;2023-03-23T16:50:14;12.77;;;5.50;;
64712;SDS011;51140;45.340;5.980;2023-03-23T16:52:42;9.93;;;5.68;;
64712;SDS011;51140;45.340;5.980;2023-03-23T16:55:09;12.98;;;6.35;;
64712;SDS011;51140;45.340;5.980;2023-03-23T16:57:36;13.60;;;5.50;;
64712;SDS011;51140;45.340;5.980;2023-03-23T17:00:12;15.30;;;5.72;;
64712;SDS011;51140;45.340;5.980;2023-03-23T17:02:40;9.43;;;5.53;;
64712;SDS011;51140;45.340;5.980;2023-03-23T17:05:07;13.05;;;5.32;;
64712;SDS011;51140;45.340;5.980;2023-03-23T17:07:39;14.00;;;6.00;;
64712;SDS011;51140;45.340;5.980;2023-03-23T17:10:06;14.02;;;5.07;;
64712;SDS011;51140;45.340;5.980;2023-03-23T17:12:33;14.13;;;5.32;;
64712;SDS011;51140;45.340;5.980;2023-03-23T17:14:59;11.95;;;5.20;;
64712;SDS011;51140;45.340;5.980;2023-03-23T17:17:25;9.80;;;5.30;;
64712;SDS011;51140;45.340;5.980;2023-03-23T17:19:51;12.82;;;5.65;;
64712;SDS011;51140;45.340;5.980;2023-03-23T17:22:16;8.57;;;5.20;;
64712;SDS011;51140;45.340;5.980;2023-03-23T17:24:42;13.43;;;5.05;;
64712;SDS011;51140;45.340;5.980;2023-03-23T17:27:08;13.02;;;5.15;;
64712;SDS011;51140;45.340;5.980;2023-03-23T17:29:33;11.73;;;4.40;;
64712;SDS011;51140;45.340;5.980;2023-03-23T17:31:59;12.25;;;4.88;;
64712;SDS011;51140;45.340;5.980;2023-03-23T17:34:24;10.00;;;4.93;;
64712;SDS011;51140;45.340;5.980;2023-03-23T17:36:50;14.82;;;7.80;;
64712;SDS011;51140;45.340;5.980;2023-03-23T17:39:15;13.98;;;8.25;;
64712;SDS011;51140;45.340;5.980;2023-03-23T17:41:40;18.80;;;9.95;;
64712;SDS011;51140;45.340;5.980;2023-03-23T17:44:06;16.33;;;9.93;;
64712;SDS011;51140;45.340;5.980;2023-03-23T17:46:31;19.67;;;10.63;;